Time;durP1;ratioP1;P1;durP2;ratioP2;P2;SDS_P1;SDS_P2;PMS_P1;PMS_P2;Temp;Humidity;BMP_temperature;BMP_pressure;BME280_temperature;BME280_humidity;BME280_pressure;Samples;Min_cycle;Max_cycle;Signal;HPM_P1;HPM_P2
2022/04/13 00:00:15;;;;;;;6.30;4.90;;;13.80;99.80;;;;;;5029344;28;20212;-72
2022/04/13 00:02:41;;;;;;;4.83;4.30;;;13.70;99.90;;;;;;5030777;28;20204;-72
2022/04/13 00:05:09;;;;;;;11.33;4.57;;;13.70;99.90;;;;;;5029955;28;20514;-71
2022/04/13 00:07:35;;;;;;;5.50;4.60;;;13.60;99.90;;;;;;5029242;28;20419;-72
2022/04/13 00:10:01;;;;;;;4.53;4.13;;;13.50;99.90;;;;;;5028838;28;20419;-71
2022/04/13 00:12:27;;;;;;;10.67;5.43;;;13.50;99.90;;;;;;5010493;28;20433;-71
2022/04/13 00:14:53;;;;;;;7.97;4.13;;;13.40;99.90;;;;;;5028121;28;20193;-73
2022/04/13 00:17:19;;;;;;;5.43;4.73;;;13.30;99.90;;;;;;5027830;28;20818;-73
2022/04/13 00:19:44;;;;;;;8.70;4.50;;;13.20;99.90;;;;;;5010126;28;20833;-73
2022/04/13 00:22:10;;;;;;;10.00;4.43;;;13.10;99.90;;;;;;5027940;28;20195;-73
2022/04/13 00:24:35;;;;;;;5.27;4.73;;;13.00;99.90;;;;;;5009440;28;20220;-73
2022/04/13 00:27:01;;;;;;;7.87;4.47;;;12.90;99.90;;;;;;5009846;28;20254;-75
2022/04/13 00:29:30;;;;;;;8.93;4.00;;;12.90;99.90;;;;;;5027495;28;20180;-73
2022/04/13 00:31:58;;;;;;;10.23;5.33;;;12.70;99.90;;;;;;5027889;28;20176;-73
2022/04/13 00:34:23;;;;;;;5.33;4.10;;;12.70;99.90;;;;;;5027637;28;20447;-73
2022/04/13 00:36:49;;;;;;;6.60;4.60;;;12.60;99.90;;;;;;5009398;28;20501;-73
2022/04/13 00:39:15;;;;;;;6.80;4.33;;;12.60;99.90;;;;;;5027627;28;20445;-73
2022/04/13 00:41:40;;;;;;;9.90;4.50;;;12.50;99.90;;;;;;5027837;28;20226;-72
2022/04/13 00:44:08;;;;;;;4.70;4.23;;;12.40;99.90;;;;;;5032747;28;20223;-72
2022/04/13 00:46:34;;;;;;;7.23;4.97;;;12.40;99.90;;;;;;5019866;28;20200;-71
2022/04/13 00:49:01;;;;;;;4.27;3.60;;;12.40;99.90;;;;;;5034563;28;20419;-72
2022/04/13 00:51:27;;;;;;;5.33;4.03;;;12.30;99.90;;;;;;5011627;28;20428;-72
2022/04/13 00:53:56;;;;;;;4.97;4.13;;;12.30;99.90;;;;;;5028258;28;20425;-72
2022/04/13 00:56:24;;;;;;;6.30;4.70;;;12.10;99.90;;;;;;5027588;28;20466;-73
2022/04/13 00:58:53;;;;;;;6.40;3.80;;;12.10;99.90;;;;;;5030927;28;20793;-71
2022/04/13 01:01:20;;;;;;;11.83;4.30;;;12.00;99.90;;;;;;5029466;28;20431;-71
2022/04/13 01:03:47;;;;;;;6.80;4.23;;;12.00;99.90;;;;;;5027226;28;20551;-71
2022/04/13 01:06:15;;;;;;;7.10;4.77;;;11.90;99.90;;;;;;5027368;28;21003;-72
2022/04/13 01:08:41;;;;;;;5.27;3.83;;;11.90;99.90;;;;;;5009260;28;20450;-73
2022/04/13 01:11:07;;;;;;;4.67;3.63;;;11.90;99.90;;;;;;5027411;28;20418;-73
2022/04/13 01:13:32;;;;;;;3.90;3.50;;;11.90;99.90;;;;;;5009537;28;21186;-73
2022/04/13 01:15:58;;;;;;;4.50;3.47;;;11.90;99.90;;;;;;5027191;28;20528;-71
2022/04/13 01:18:24;;;;;;;3.87;3.40;;;11.80;99.90;;;;;;5027228;28;20194;-72
2022/04/13 01:20:53;;;;;;;2.70;2.20;;;11.60;99.90;;;;;;5027120;28;20180;-71
2022/04/13 01:23:20;;;;;;;5.03;2.83;;;11.50;99.90;;;;;;5027034;28;20183;-71
2022/04/13 01:25:50;;;;;;;3.20;2.40;;;11.30;99.90;;;;;;5026786;28;20476;-71
2022/04/13 01:28:16;;;;;;;3.20;2.20;;;11.30;99.90;;;;;;5027115;28;20432;-71
2022/04/13 01:30:42;;;;;;;4.07;2.17;;;11.50;99.90;;;;;;5026912;28;20508;-71
2022/04/13 01:33:08;;;;;;;2.83;2.57;;;11.60;99.90;;;;;;5027016;28;20421;-71
2022/04/13 01:35:34;;;;;;;5.17;2.60;;;11.70;99.90;;;;;;5009370;28;20558;-73
2022/04/13 01:38:00;;;;;;;6.70;3.40;;;11.70;99.90;;;;;;5031632;28;20209;-73
2022/04/13 01:40:26;;;;;;;3.20;2.63;;;11.60;99.90;;;;;;5031012;28;20957;-72
2022/04/13 01:42:51;;;;;;;3.57;2.77;;;11.60;99.90;;;;;;5031224;28;20494;-73
2022/04/13 01:45:20;;;;;;;2.70;2.17;;;11.60;99.90;;;;;;5031193;28;20216;-72
2022/04/13 01:47:54;;;;;;;3.83;2.70;;;11.50;99.90;;;;;;5031166;28;20190;-72
2022/04/13 01:50:20;;;;;;;6.60;2.10;;;11.40;99.90;;;;;;5031260;28;20416;-72
2022/04/13 01:52:47;;;;;;;4.53;2.60;;;11.40;99.90;;;;;;5031317;28;20532;-72
2022/04/13 01:55:13;;;;;;;3.63;2.60;;;11.20;99.90;;;;;;5030942;28;20429;-72
2022/04/13 01:57:40;;;;;;;2.63;2.37;;;11.20;99.90;;;;;;5013237;28;20487;-72
2022/04/13 02:00:08;;;;;;;4.10;2.40;;;11.20;99.90;;;;;;5012845;28;20507;-72
2022/04/13 02:02:34;;;;;;;8.27;2.73;;;11.30;99.90;;;;;;5030865;28;20424;-72
2022/04/13 02:05:00;;;;;;;2.97;2.67;;;11.20;99.90;;;;;;5030757;28;21106;-72
2022/04/13 02:07:27;;;;;;;3.20;2.20;;;11.20;99.90;;;;;;4996316;28;20205;-72
2022/04/13 02:09:54;;;;;;;3.00;2.80;;;11.20;99.90;;;;;;5030578;28;20425;-72
2022/04/13 02:12:20;;;;;;;4.50;3.67;;;11.10;99.90;;;;;;5030897;28;20434;-72
2022/04/13 02:14:45;;;;;;;5.77;3.00;;;11.10;99.90;;;;;;5013087;28;20950;-71
2022/04/13 02:17:14;;;;;;;3.70;3.40;;;11.10;99.90;;;;;;5030737;28;20199;-73
2022/04/13 02:19:41;;;;;;;3.23;2.97;;;11.00;99.90;;;;;;5030554;28;20188;-72
2022/04/13 02:22:08;;;;;;;4.77;3.17;;;11.00;99.90;;;;;;5030609;28;21005;-72
2022/04/13 02:24:38;;;;;;;6.77;3.30;;;10.90;99.90;;;;;;5012597;28;20481;-72
2022/04/13 02:27:04;;;;;;;2.90;2.67;;;10.80;99.90;;;;;;5030664;28;20435;-72
2022/04/13 02:29:29;;;;;;;5.30;2.80;;;10.80;99.90;;;;;;5012787;28;20413;-72
2022/04/13 02:31:55;;;;;;;7.67;2.77;;;10.80;99.90;;;;;;5012806;28;20422;-72
2022/04/13 02:34:21;;;;;;;4.20;2.80;;;10.80;99.90;;;;;;5012586;28;20587;-72
2022/04/13 02:36:46;;;;;;;3.30;2.10;;;10.80;99.90;;;;;;5030726;28;20718;-72
2022/04/13 02:39:12;;;;;;;4.60;2.53;;;10.80;99.90;;;;;;5030412;28;20186;-73
2022/04/13 02:41:39;;;;;;;5.20;2.70;;;10.80;99.90;;;;;;5030160;28;20193;-72
2022/04/13 02:44:05;;;;;;;4.13;2.40;;;10.80;99.90;;;;;;5029977;28;20205;-72
2022/04/13 02:46:31;;;;;;;2.90;2.20;;;10.60;99.90;;;;;;5029641;28;20501;-71
2022/04/13 02:48:56;;;;;;;3.13;2.23;;;10.50;99.90;;;;;;5029573;28;21146;-71
2022/04/13 02:51:22;;;;;;;3.27;2.47;;;10.40;99.90;;;;;;5029551;28;20183;-72
2022/04/13 02:53:48;;;;;;;2.67;2.47;;;10.40;99.90;;;;;;5029614;28;20187;-71
2022/04/13 02:56:13;;;;;;;6.90;2.10;;;10.40;99.90;;;;;;5029583;28;20506;-71
2022/04/13 02:58:39;;;;;;;2.10;2.00;;;10.40;99.90;;;;;;5011686;28;20232;-71
2022/04/13 03:01:06;;;;;;;4.70;2.10;;;10.40;99.90;;;;;;5029580;28;20976;-72
2022/04/13 03:03:32;;;;;;;2.90;2.50;;;10.40;99.90;;;;;;5029384;28;20640;-72
2022/04/13 03:05:58;;;;;;;2.30;2.10;;;10.50;99.90;;;;;;5029672;28;20449;-72
2022/04/13 03:08:24;;;;;;;5.10;3.00;;;10.40;99.90;;;;;;5029639;28;20418;-72
2022/04/13 03:10:49;;;;;;;3.07;2.57;;;10.50;99.90;;;;;;5029791;28;20185;-72
2022/04/13 03:13:15;;;;;;;7.23;3.07;;;10.50;99.90;;;;;;5029663;28;20210;-72
2022/04/13 03:15:41;;;;;;;10.00;2.70;;;10.60;99.90;;;;;;5029572;28;20677;-73
2022/04/13 03:18:07;;;;;;;3.13;2.80;;;10.50;99.90;;;;;;5029519;28;20206;-72
2022/04/13 03:20:34;;;;;;;8.43;2.90;;;10.30;99.90;;;;;;5029100;28;20194;-72
2022/04/13 03:23:00;;;;;;;5.30;2.97;;;10.20;99.90;;;;;;5011662;28;20843;-72
2022/04/13 03:25:26;;;;;;;7.17;3.00;;;10.20;99.90;;;;;;5028994;28;20476;-73
2022/04/13 03:27:52;;;;;;;4.33;2.80;;;10.30;99.90;;;;;;5028865;28;20834;-72
2022/04/13 03:30:18;;;;;;;3.50;2.90;;;10.30;99.90;;;;;;5030027;28;20180;-72
2022/04/13 03:32:43;;;;;;;3.83;2.90;;;10.40;99.90;;;;;;5029458;28;20184;-72
2022/04/13 03:35:11;;;;;;;3.47;2.73;;;10.30;99.90;;;;;;5010951;28;20478;-71
2022/04/13 03:37:37;;;;;;;3.13;2.27;;;10.30;99.90;;;;;;5028657;28;20246;-72
2022/04/13 03:40:04;;;;;;;9.40;3.00;;;10.20;99.90;;;;;;5028355;28;21157;-72
2022/04/13 03:42:37;;;;;;;6.83;2.93;;;10.10;99.90;;;;;;5028345;28;20466;-71
2022/04/13 03:45:13;;;;;;;3.60;3.00;;;10.00;99.90;;;;;;5028294;28;20505;-72
2022/04/13 03:47:40;;;;;;;8.03;3.13;;;10.00;99.90;;;;;;5010527;28;20825;-71
2022/04/13 03:50:07;;;;;;;7.57;4.10;;;10.00;99.90;;;;;;5028103;28;20423;-71
2022/04/13 03:52:34;;;;;;;6.57;2.87;;;9.90;99.90;;;;;;5028043;28;20498;-71
2022/04/13 03:55:01;;;;;;;6.17;3.50;;;9.80;99.90;;;;;;5028056;28;20423;-73
2022/04/13 03:57:27;;;;;;;4.13;3.33;;;9.80;99.90;;;;;;5027955;28;20506;-72
2022/04/13 03:59:53;;;;;;;4.60;2.33;;;9.70;99.90;;;;;;5027429;28;20427;-74
2022/04/13 04:02:19;;;;;;;4.07;3.10;;;9.70;99.90;;;;;;5028010;28;20179;-74
2022/04/13 04:04:45;;;;;;;6.40;2.57;;;9.60;99.90;;;;;;5027897;28;20209;-74
2022/04/13 04:07:10;;;;;;;6.33;3.40;;;9.50;99.90;;;;;;5027721;28;20518;-75
2022/04/13 04:09:36;;;;;;;5.37;3.37;;;9.50;99.90;;;;;;5009832;28;20598;-74
2022/04/13 04:12:02;;;;;;;5.90;3.40;;;9.40;99.90;;;;;;5027816;28;20180;-74
2022/04/13 04:14:27;;;;;;;4.90;3.20;;;9.40;99.90;;;;;;5027819;28;20216;-74
2022/04/13 04:16:53;;;;;;;3.20;2.90;;;9.40;99.90;;;;;;5027557;28;20440;-75
2022/04/13 04:19:19;;;;;;;3.07;2.70;;;9.30;99.90;;;;;;5027835;28;20259;-74
2022/04/13 04:21:44;;;;;;;3.77;3.23;;;9.30;99.90;;;;;;5027924;28;20209;-74
2022/04/13 04:24:13;;;;;;;6.80;4.40;;;9.30;99.90;;;;;;5027493;28;20223;-74
2022/04/13 04:26:39;;;;;;;3.97;3.63;;;9.20;99.90;;;;;;5009342;28;20295;-75
2022/04/13 04:29:05;;;;;;;11.40;3.53;;;9.30;99.90;;;;;;5027466;28;20421;-75
2022/04/13 04:34:15;;;;;;;3.10;2.37;;;9.20;99.90;;;;;;5012433;28;20771;-74
2022/04/13 04:36:40;;;;;;;2.40;2.20;;;9.30;99.90;;;;;;5027370;28;20441;-75
2022/04/13 04:39:07;;;;;;;5.50;2.63;;;9.40;99.90;;;;;;5027375;28;20188;-75
2022/04/13 04:41:33;;;;;;;4.77;2.90;;;9.50;99.90;;;;;;5009578;28;20190;-75
2022/04/13 04:43:59;;;;;;;4.43;1.77;;;9.70;99.90;;;;;;5027465;28;20468;-74
2022/04/13 04:46:24;;;;;;;6.00;2.20;;;9.80;99.90;;;;;;5027364;28;20805;-74
2022/04/13 04:48:50;;;;;;;4.23;2.10;;;9.90;99.90;;;;;;5027347;28;20414;-75
2022/04/13 04:51:16;;;;;;;5.77;2.63;;;10.00;99.90;;;;;;5027195;28;20208;-75
2022/04/13 04:53:41;;;;;;;4.50;2.53;;;10.10;99.90;;;;;;5027401;28;20192;-75
2022/04/13 04:56:07;;;;;;;5.00;2.63;;;10.20;99.90;;;;;;5009138;28;20205;-74
2022/04/13 04:58:33;;;;;;;3.07;2.50;;;10.30;99.90;;;;;;5009125;28;20188;-75
2022/04/13 05:00:59;;;;;;;5.83;2.70;;;10.30;99.90;;;;;;5027301;28;20426;-75
2022/04/13 05:03:24;;;;;;;3.57;2.60;;;10.20;99.90;;;;;;5027302;28;20192;-74
2022/04/13 05:05:51;;;;;;;4.00;2.47;;;10.20;99.90;;;;;;5027226;28;20205;-75
2022/04/13 05:08:17;;;;;;;4.53;2.90;;;10.30;99.90;;;;;;5027419;28;20184;-75
2022/04/13 05:10:43;;;;;;;7.60;3.47;;;10.30;99.90;;;;;;5027930;28;20448;-74
2022/04/13 05:13:09;;;;;;;3.80;2.77;;;10.30;99.90;;;;;;5033242;28;20177;-75
2022/04/13 05:15:34;;;;;;;5.43;2.70;;;10.30;99.90;;;;;;5033410;28;20464;-74
2022/04/13 05:18:00;;;;;;;6.30;2.80;;;10.30;99.90;;;;;;5033903;28;20192;-75
2022/04/13 05:20:26;;;;;;;15.20;3.80;;;10.30;99.90;;;;;;5033586;28;20658;-74
2022/04/13 05:22:52;;;;;;;6.87;3.60;;;10.30;99.90;;;;;;5014763;28;20662;-75
2022/04/13 05:25:17;;;;;;;10.53;3.40;;;10.20;99.90;;;;;;5032003;28;20236;-75
2022/04/13 05:27:44;;;;;;;7.37;2.80;;;10.30;99.90;;;;;;5032131;28;20183;-75
2022/04/13 05:30:13;;;;;;;11.43;2.63;;;10.30;99.90;;;;;;5031645;28;20223;-74
2022/04/13 05:32:49;;;;;;;11.70;2.93;;;10.40;99.90;;;;;;5031453;28;20412;-75
2022/04/13 05:35:16;;;;;;;5.67;2.23;;;10.60;99.90;;;;;;5031220;28;20432;-75
2022/04/13 05:37:42;;;;;;;6.17;2.90;;;10.80;99.90;;;;;;5031067;28;20412;-75
2022/04/13 05:40:08;;;;;;;5.27;2.83;;;10.90;99.90;;;;;;5013394;28;20415;-75
2022/04/13 05:42:34;;;;;;;5.13;2.90;;;11.00;99.90;;;;;;5012827;28;20499;-74
2022/04/13 05:44:59;;;;;;;13.73;2.90;;;11.20;99.90;;;;;;5030799;28;20471;-75
2022/04/13 05:47:26;;;;;;;4.33;2.40;;;11.20;99.90;;;;;;5012619;28;20206;-75
2022/04/13 05:49:51;;;;;;;4.87;3.07;;;11.40;99.90;;;;;;5030691;28;20216;-74
2022/04/13 05:52:17;;;;;;;4.60;3.63;;;11.60;99.90;;;;;;5030634;28;20838;-74
2022/04/13 05:54:43;;;;;;;13.90;3.13;;;11.80;99.90;;;;;;5030567;28;20225;-75
2022/04/13 05:57:08;;;;;;;5.77;3.60;;;12.00;99.90;;;;;;5012711;28;20243;-75
2022/04/13 05:59:35;;;;;;;8.03;3.30;;;12.20;99.90;;;;;;5030512;28;20186;-74
2022/04/13 06:02:01;;;;;;;6.20;3.30;;;12.40;99.90;;;;;;5030645;28;20652;-75
2022/04/13 06:04:27;;;;;;;13.53;3.43;;;12.70;99.90;;;;;;5030330;28;20460;-74
2022/04/13 06:06:56;;;;;;;5.50;3.13;;;12.90;99.90;;;;;;5030380;28;20848;-74
2022/04/13 06:09:22;;;;;;;13.30;3.57;;;13.10;99.90;;;;;;5012087;28;20693;-74
2022/04/13 06:11:49;;;;;;;3.33;3.10;;;13.30;99.90;;;;;;5012429;28;20515;-74
2022/04/13 06:14:15;;;;;;;5.70;3.30;;;13.40;99.90;;;;;;5012424;28;20508;-74
2022/04/13 06:16:40;;;;;;;3.97;2.97;;;13.50;99.90;;;;;;5030089;28;20579;-74
2022/04/13 06:19:06;;;;;;;9.40;4.27;;;13.60;99.90;;;;;;5030493;28;20426;-74
2022/04/13 06:21:32;;;;;;;7.27;4.70;;;13.70;99.90;;;;;;5030109;28;20184;-74
2022/04/13 06:23:57;;;;;;;14.93;6.53;;;13.80;99.90;;;;;;5030160;28;20289;-74
2022/04/13 06:26:23;;;;;;;11.23;6.60;;;13.90;99.90;;;;;;5030251;28;20333;-74
2022/04/13 06:28:48;;;;;;;14.90;6.73;;;13.90;99.90;;;;;;5030212;28;20188;-74
2022/04/13 06:31:14;;;;;;;9.80;5.83;;;14.00;99.90;;;;;;5012290;28;20195;-74
2022/04/13 06:33:40;;;;;;;7.47;5.20;;;14.20;99.90;;;;;;5030275;28;20249;-74
2022/04/13 06:36:06;;;;;;;9.60;4.70;;;14.30;99.90;;;;;;5030411;28;20207;-75
2022/04/13 06:38:35;;;;;;;5.20;4.67;;;14.60;99.90;;;;;;5030365;28;20279;-74
2022/04/13 06:41:00;;;;;;;22.03;7.60;;;14.80;99.90;;;;;;5030307;28;20424;-74
2022/04/13 06:43:26;;;;;;;16.00;5.70;;;15.00;99.90;;;;;;5012035;28;20431;-75
2022/04/13 06:45:55;;;;;;;5.87;4.80;;;15.30;99.90;;;;;;5029963;28;20192;-74
2022/04/13 06:48:21;;;;;;;12.60;5.40;;;15.60;99.90;;;;;;5029784;28;20181;-74
2022/04/13 06:50:46;;;;;;;15.00;4.80;;;15.80;99.90;;;;;;5029627;28;20498;-74
2022/04/13 06:53:14;;;;;;;6.37;3.90;;;15.90;99.90;;;;;;5029620;28;20502;-74
2022/04/13 06:55:40;;;;;;;5.53;4.30;;;16.10;99.90;;;;;;5011363;28;20205;-74
2022/04/13 06:58:07;;;;;;;8.63;4.10;;;16.30;99.90;;;;;;5029369;28;20428;-74
2022/04/13 07:00:32;;;;;;;11.40;4.43;;;16.60;99.90;;;;;;5029565;28;20829;-74
2022/04/13 07:02:58;;;;;;;9.60;4.67;;;16.70;99.00;;;;;;5029487;28;20425;-75
2022/04/13 07:05:25;;;;;;;4.33;3.47;;;16.80;98.90;;;;;;5029335;28;20208;-75
2022/04/13 07:07:50;;;;;;;4.40;3.40;;;17.10;97.90;;;;;;5029182;28;20662;-75
2022/04/13 07:10:16;;;;;;;4.63;3.53;;;17.10;97.00;;;;;;5029297;28;20465;-74
2022/04/13 07:12:42;;;;;;;9.60;3.90;;;17.10;97.00;;;;;;5029720;28;20255;-74
2022/04/13 07:15:08;;;;;;;4.73;3.60;;;17.20;96.50;;;;;;5011723;28;20947;-74
2022/04/13 07:17:35;;;;;;;7.13;4.07;;;17.20;96.00;;;;;;5029041;28;20299;-75
2022/04/13 07:20:00;;;;;;;6.07;4.07;;;17.50;96.30;;;;;;5029181;28;20866;-74
2022/04/13 07:22:26;;;;;;;13.30;5.10;;;17.70;95.50;;;;;;5028882;28;20426;-75
2022/04/13 07:24:52;;;;;;;9.23;4.67;;;17.80;95.70;;;;;;5028847;28;20523;-75
2022/04/13 07:27:18;;;;;;;9.30;4.13;;;17.80;95.40;;;;;;5028713;28;20217;-75
2022/04/13 07:29:44;;;;;;;3.93;3.40;;;17.90;95.10;;;;;;5028839;28;20420;-75
2022/04/13 07:32:10;;;;;;;4.37;2.53;;;18.00;94.80;;;;;;5028638;28;20424;-75
2022/04/13 07:34:36;;;;;;;9.10;3.20;;;18.20;95.40;;;;;;5009904;28;20422;-75
2022/04/13 07:37:04;;;;;;;7.53;2.50;;;18.30;95.00;;;;;;5028669;28;20214;-75
2022/04/13 07:39:30;;;;;;;5.80;3.20;;;18.50;94.80;;;;;;5028813;28;20418;-75
2022/04/13 07:41:55;;;;;;;14.67;3.37;;;18.50;93.80;;;;;;5010630;28;20433;-75
2022/04/13 07:44:21;;;;;;;9.57;3.90;;;18.70;94.10;;;;;;5028400;28;20345;-75
2022/04/13 07:46:47;;;;;;;8.20;3.30;;;18.70;93.70;;;;;;5028131;28;20197;-75
2022/04/13 07:49:12;;;;;;;6.20;3.00;;;18.70;93.80;;;;;;5010265;28;20188;-75
2022/04/13 07:51:40;;;;;;;7.10;3.70;;;18.80;94.50;;;;;;4994185;28;20936;-75
2022/04/13 07:54:06;;;;;;;3.87;3.20;;;19.00;94.20;;;;;;5028195;28;20215;-75
2022/04/13 07:56:32;;;;;;;4.77;2.70;;;19.20;94.20;;;;;;5028022;28;20445;-75
2022/04/13 07:58:58;;;;;;;6.57;3.13;;;19.20;93.70;;;;;;5028154;28;20951;-74
2022/04/13 08:01:24;;;;;;;5.73;2.60;;;19.20;93.20;;;;;;5028244;28;20287;-75
2022/04/13 08:03:49;;;;;;;7.73;3.23;;;19.20;93.60;;;;;;5028122;28;20730;-75
2022/04/13 08:06:15;;;;;;;9.40;4.00;;;19.40;93.40;;;;;;5027997;28;20223;-75
2022/04/13 08:08:40;;;;;;;18.00;4.20;;;19.50;92.20;;;;;;5009986;28;20192;-75
2022/04/13 08:11:06;;;;;;;7.90;3.73;;;19.60;92.50;;;;;;5027976;28;20186;-75
2022/04/13 08:13:33;;;;;;;7.53;3.40;;;19.80;92.40;;;;;;5009870;28;20184;-75
2022/04/13 08:15:59;;;;;;;6.67;3.70;;;19.90;90.80;;;;;;5028084;28;20249;-75
2022/04/13 08:18:24;;;;;;;9.63;4.40;;;20.00;90.70;;;;;;5027888;28;20946;-75
2022/04/13 08:20:50;;;;;;;9.20;3.93;;;20.20;90.30;;;;;;5028470;28;20786;-75
2022/04/13 08:23:16;;;;;;;5.87;4.10;;;20.30;89.20;;;;;;5028168;28;20268;-75
2022/04/13 08:25:42;;;;;;;9.03;4.10;;;20.50;90.30;;;;;;5027560;28;20230;-75
2022/04/13 08:28:08;;;;;;;5.57;3.50;;;20.70;87.90;;;;;;5027602;28;20927;-75
2022/04/13 08:30:34;;;;;;;8.87;4.17;;;20.90;86.80;;;;;;5009812;28;20607;-75
2022/04/13 08:32:59;;;;;;;8.10;3.70;;;21.10;88.50;;;;;;5027669;28;20414;-75
2022/04/13 08:35:26;;;;;;;6.20;3.77;;;21.10;84.90;;;;;;5027919;28;20692;-75
2022/04/13 08:37:52;;;;;;;5.80;3.33;;;21.30;87.40;;;;;;5010105;28;20274;-75
2022/04/13 08:40:20;;;;;;;7.60;3.10;;;21.50;87.50;;;;;;5027788;28;20419;-75
2022/04/13 08:42:58;;;;;;;8.47;3.60;;;21.60;86.50;;;;;;5027338;28;20182;-75
2022/04/13 08:45:25;;;;;;;8.43;3.67;;;21.70;86.20;;;;;;5009057;28;20553;-75
2022/04/13 08:48:00;;;;;;;7.40;3.73;;;22.00;85.40;;;;;;5027408;28;20936;-75
2022/04/13 08:50:28;;;;;;;3.83;2.80;;;22.10;84.70;;;;;;4994172;28;20427;-75
2022/04/13 08:52:59;;;;;;;15.73;11.93;;;22.30;84.00;;;;;;5027428;28;20509;-75
2022/04/13 08:55:27;;;;;;;4.40;3.30;;;22.30;83.70;;;;;;5009799;28;20426;-75
2022/04/13 08:58:26;;;;;;;5.70;4.50;;;22.50;81.20;;;;;;5027544;28;20430;-75
2022/04/13 09:00:56;;;;;;;9.23;2.90;;;22.60;77.10;;;;;;5027337;28;20426;-75
2022/04/13 09:03:42;;;;;;;4.13;2.97;;;22.80;80.10;;;;;;5027359;28;20430;-75
2022/04/13 09:06:08;;;;;;;5.70;3.10;;;23.00;79.80;;;;;;5027285;28;20477;-75
2022/04/13 09:08:40;;;;;;;8.93;3.20;;;23.30;76.90;;;;;;5027503;28;20520;-75
2022/04/13 09:11:07;;;;;;;4.07;2.80;;;23.50;77.10;;;;;;5027281;28;20412;-75
2022/04/13 09:13:34;;;;;;;6.07;3.30;;;23.80;78.00;;;;;;5027284;28;20914;-75
2022/04/13 09:16:00;;;;;;;2.97;2.67;;;23.80;76.40;;;;;;5027219;28;21008;-75
2022/04/13 09:18:26;;;;;;;4.40;2.63;;;24.00;75.40;;;;;;5027373;28;20415;-75
2022/04/13 09:20:51;;;;;;;3.90;3.00;;;24.00;76.10;;;;;;5027171;28;20912;-76
2022/04/13 09:23:19;;;;;;;9.43;3.50;;;24.20;76.60;;;;;;5009218;28;20192;-75
2022/04/13 09:25:48;;;;;;;6.00;3.10;;;24.40;72.70;;;;;;5008761;28;20225;-76
2022/04/13 09:28:14;;;;;;;7.47;3.30;;;24.70;69.90;;;;;;5027204;28;20416;-76
2022/04/13 09:30:40;;;;;;;8.57;3.20;;;24.90;70.40;;;;;;5027391;28;20995;-75
2022/04/13 09:33:05;;;;;;;8.73;2.70;;;25.00;70.20;;;;;;5027521;28;20263;-76
2022/04/13 09:35:32;;;;;;;10.60;4.03;;;25.30;70.80;;;;;;5028970;28;20275;-76
2022/04/13 09:38:08;;;;;;;8.40;3.17;;;25.30;69.30;;;;;;5028831;28;20188;-75
2022/04/13 09:40:40;;;;;;;12.10;3.87;;;25.60;66.60;;;;;;5029174;28;20848;-75
2022/04/13 09:43:10;;;;;;;5.50;3.10;;;25.60;66.70;;;;;;5010326;28;20985;-76
2022/04/13 09:45:39;;;;;;;9.07;3.57;;;25.70;66.70;;;;;;5027606;28;20470;-76
2022/04/13 09:48:06;;;;;;;9.60;2.83;;;25.70;65.80;;;;;;5009761;28;20432;-76
2022/04/13 09:50:32;;;;;;;10.30;3.30;;;25.80;68.70;;;;;;5010104;28;20762;-76
2022/04/13 09:53:03;;;;;;;10.17;3.63;;;26.20;68.10;;;;;;5027507;28;20418;-75
2022/04/13 09:55:29;;;;;;;8.00;3.30;;;26.20;63.90;;;;;;5027327;28;20487;-76
2022/04/13 09:58:12;;;;;;;6.80;3.43;;;26.60;63.80;;;;;;5029965;28;20423;-75
2022/04/13 10:00:39;;;;;;;8.67;3.07;;;26.80;61.30;;;;;;5031316;28;20512;-76
2022/04/13 10:03:13;;;;;;;6.70;3.03;;;26.80;55.80;;;;;;5030803;28;20422;-76
2022/04/13 10:05:42;;;;;;;13.43;2.77;;;26.60;54.40;;;;;;5030505;28;20516;-77
2022/04/13 10:08:09;;;;;;;5.77;2.43;;;26.50;55.80;;;;;;5030536;28;20865;-76
2022/04/13 10:10:39;;;;;;;8.93;3.57;;;26.80;55.90;;;;;;5030572;28;20546;-76
2022/04/13 10:13:05;;;;;;;8.93;2.97;;;26.90;54.80;;;;;;5030416;28;20434;-76
2022/04/13 10:15:31;;;;;;;9.03;3.03;;;26.70;53.80;;;;;;5030361;28;20426;-76
2022/04/13 10:18:01;;;;;;;10.67;2.80;;;26.80;53.40;;;;;;5030470;28;20195;-75
2022/04/13 10:20:44;;;;;;;6.57;3.13;;;27.00;53.60;;;;;;5030254;28;20188;-76
2022/04/13 10:23:10;;;;;;;7.77;3.20;;;27.00;52.50;;;;;;5030610;28;20426;-76
2022/04/13 10:25:36;;;;;;;5.50;2.80;;;27.10;53.20;;;;;;5030237;28;20482;-77
2022/04/13 10:28:03;;;;;;;4.80;2.37;;;27.20;51.60;;;;;;5030638;28;20418;-77
2022/04/13 10:30:28;;;;;;;7.97;2.70;;;27.60;54.40;;;;;;5030287;28;20987;-77
2022/04/13 10:33:04;;;;;;;9.13;3.70;;;27.70;53.30;;;;;;5030525;28;20415;-77
2022/04/13 10:35:31;;;;;;;10.10;2.23;;;27.80;51.30;;;;;;5012879;28;20661;-76
2022/04/13 10:37:58;;;;;;;8.83;3.07;;;27.60;54.60;;;;;;5030446;28;20498;-76
2022/04/13 10:40:25;;;;;;;3.80;2.47;;;27.80;52.70;;;;;;5030534;28;20519;-76
2022/04/13 10:42:52;;;;;;;5.40;2.63;;;27.80;53.50;;;;;;5012282;28;20427;-76
2022/04/13 10:45:18;;;;;;;6.70;3.20;;;27.80;55.10;;;;;;5012014;28;20459;-76
2022/04/13 10:47:48;;;;;;;6.27;2.80;;;28.10;52.40;;;;;;5030293;28;20928;-76
2022/04/13 10:50:16;;;;;;;11.00;3.37;;;28.10;54.20;;;;;;5029949;28;21304;-76
2022/04/13 10:52:56;;;;;;;10.30;2.67;;;28.10;53.80;;;;;;5029637;28;20936;-75
2022/04/13 10:55:23;;;;;;;15.37;3.33;;;28.50;54.80;;;;;;5029650;28;20473;-74
2022/04/13 10:58:08;;;;;;;6.33;3.50;;;28.40;52.40;;;;;;5011370;28;20968;-76
2022/04/13 11:00:36;;;;;;;8.37;2.87;;;28.40;54.30;;;;;;5029291;28;20446;-76
2022/04/13 11:03:05;;;;;;;4.83;3.20;;;28.20;54.00;;;;;;5029515;28;20787;-76
2022/04/13 11:05:32;;;;;;;7.00;2.90;;;28.20;53.90;;;;;;5011452;28;20471;-76
2022/04/13 11:08:07;;;;;;;3.90;3.13;;;28.40;53.80;;;;;;5029243;28;20411;-76
2022/04/13 11:10:35;;;;;;;5.53;3.17;;;28.30;54.50;;;;;;5029963;28;20403;-76
2022/04/13 11:13:01;;;;;;;8.73;3.00;;;28.40;52.50;;;;;;5030493;28;20454;-78
2022/04/13 11:15:38;;;;;;;6.80;3.07;;;28.40;55.50;;;;;;5029585;28;20439;-76
2022/04/13 11:18:12;;;;;;;7.47;3.30;;;28.30;52.60;;;;;;5029577;28;20688;-76
2022/04/13 11:20:58;;;;;;;6.63;2.63;;;28.40;53.90;;;;;;5029605;28;20443;-77
2022/04/13 11:23:51;;;;;;;6.70;2.40;;;28.20;54.60;;;;;;5011385;28;20437;-76
2022/04/13 11:26:47;;;;;;;4.87;3.03;;;28.10;55.20;;;;;;5012044;28;20545;-76
2022/04/13 11:29:21;;;;;;;2.93;2.60;;;27.70;54.30;;;;;;5028959;28;20423;-77
2022/04/13 11:32:02;;;;;;;9.77;2.70;;;27.70;55.00;;;;;;5029086;28;20419;-77
2022/04/13 11:34:28;;;;;;;14.77;3.50;;;28.00;55.00;;;;;;5028882;28;20427;-76
2022/04/13 11:36:58;;;;;;;9.20;2.30;;;27.90;53.50;;;;;;5029199;28;21002;-77
2022/04/13 11:39:48;;;;;;;5.70;2.53;;;28.00;54.00;;;;;;5029559;28;20961;-76
2022/04/13 11:42:21;;;;;;;7.50;2.73;;;28.40;55.00;;;;;;5029151;28;20422;-79
2022/04/13 11:44:48;;;;;;;5.60;2.70;;;28.50;54.50;;;;;;5011323;28;20983;-77
2022/04/13 11:47:18;;;;;;;5.90;3.00;;;28.50;54.20;;;;;;5011610;28;20455;-77
2022/04/13 11:49:55;;;;;;;4.47;2.33;;;28.60;54.60;;;;;;5011821;28;20934;-77
2022/04/13 11:52:50;;;;;;;4.53;2.53;;;28.90;53.20;;;;;;5029501;28;20541;-77
2022/04/13 11:55:20;;;;;;;16.10;2.63;;;29.10;52.30;;;;;;5029296;28;20468;-76
2022/04/13 11:57:59;;;;;;;13.97;2.73;;;29.10;51.60;;;;;;5029379;28;20462;-76
2022/04/13 12:00:56;;;;;;;9.73;2.80;;;29.10;53.30;;;;;;5029709;28;20430;-76
2022/04/13 12:03:30;;;;;;;6.90;2.50;;;29.00;52.20;;;;;;5012152;28;20795;-76
2022/04/13 12:06:19;;;;;;;5.40;2.40;;;28.90;51.20;;;;;;5029587;28;20548;-76
2022/04/13 12:08:47;;;;;;;6.60;2.60;;;29.10;51.50;;;;;;5011663;28;20791;-76
2022/04/13 12:11:16;;;;;;;6.63;2.73;;;29.10;51.00;;;;;;5011294;28;20803;-77
2022/04/13 12:13:54;;;;;;;6.30;2.40;;;29.20;50.30;;;;;;5028800;28;20422;-76
2022/04/13 12:16:30;;;;;;;3.27;2.10;;;29.30;51.20;;;;;;5029063;28;20462;-76
2022/04/13 12:19:07;;;;;;;6.90;2.90;;;29.40;50.50;;;;;;5029101;28;20411;-76
2022/04/13 12:21:36;;;;;;;7.40;2.30;;;29.60;52.30;;;;;;5028787;28;20418;-77
2022/04/13 12:24:04;;;;;;;4.20;2.37;;;29.60;50.30;;;;;;5028984;28;20971;-77
2022/04/13 12:26:33;;;;;;;4.97;2.37;;;29.50;50.00;;;;;;5029261;28;20960;-76
2022/04/13 12:29:00;;;;;;;3.70;2.53;;;29.60;50.10;;;;;;5011309;28;20423;-77
2022/04/13 12:31:27;;;;;;;4.53;2.57;;;29.50;49.90;;;;;;5029339;28;20511;-76
2022/04/13 12:33:58;;;;;;;6.83;2.50;;;29.20;49.70;;;;;;5028855;28;20449;-77
2022/04/13 12:36:24;;;;;;;5.77;2.57;;;29.00;49.50;;;;;;5028642;28;20532;-76
2022/04/13 12:38:55;;;;;;;4.60;2.43;;;29.00;50.60;;;;;;5028484;28;20896;-76
2022/04/13 12:41:27;;;;;;;5.93;2.70;;;29.20;50.10;;;;;;5028683;28;20283;-77
2022/04/13 12:43:56;;;;;;;5.40;2.70;;;29.40;48.40;;;;;;5028828;28;20448;-77
2022/04/13 12:46:23;;;;;;;5.57;2.03;;;29.50;48.80;;;;;;5028498;28;20932;-77
2022/04/13 12:48:55;;;;;;;4.10;2.13;;;29.40;46.70;;;;;;5028241;28;20454;-76
2022/04/13 12:51:21;;;;;;;11.83;2.53;;;29.20;46.50;;;;;;4994395;28;20427;-76